sensor_id;sensor_type;location;lat;lon;timestamp;pressure;altitude;pressure_sealevel;temperature;humidity
34073;BME280;20346;52.702;16.886;2024-03-29T00:00:33;99192.20;;;6.99;65.55
34073;BME280;20346;52.702;16.886;2024-03-29T00:02:59;99196.29;;;6.92;66.13
34073;BME280;20346;52.702;16.886;2024-03-29T00:05:25;99208.72;;;6.88;65.86
34073;BME280;20346;52.702;16.886;2024-03-29T00:07:50;99211.55;;;6.77;65.73
34073;BME280;20346;52.702;16.886;2024-03-29T00:10:15;99219.69;;;6.66;66.94
34073;BME280;20346;52.702;16.886;2024-03-29T00:12:41;99222.61;;;6.58;66.79
34073;BME280;20346;52.702;16.886;2024-03-29T00:15:06;99231.10;;;6.53;67.10
34073;BME280;20346;52.702;16.886;2024-03-29T00:17:32;99240.20;;;6.52;67.07
34073;BME280;20346;52.702;16.886;2024-03-29T00:19:58;99242.66;;;6.49;68.43
34073;BME280;20346;52.702;16.886;2024-03-29T00:22:23;99246.34;;;6.45;68.54
34073;BME280;20346;52.702;16.886;2024-03-29T00:24:48;99252.90;;;6.43;68.07
34073;BME280;20346;52.702;16.886;2024-03-29T00:27:14;99258.60;;;6.40;67.80
34073;BME280;20346;52.702;16.886;2024-03-29T00:29:39;99263.39;;;6.41;68.00
34073;BME280;20346;52.702;16.886;2024-03-29T00:32:05;99266.98;;;6.41;68.55
34073;BME280;20346;52.702;16.886;2024-03-29T00:34:31;99270.28;;;6.38;68.99
34073;BME280;20346;52.702;16.886;2024-03-29T00:36:56;99273.23;;;6.36;69.24
34073;BME280;20346;52.702;16.886;2024-03-29T00:39:21;99287.10;;;6.36;68.28
34073;BME280;20346;52.702;16.886;2024-03-29T00:41:47;99289.91;;;6.32;70.33
34073;BME280;20346;52.702;16.886;2024-03-29T00:44:13;99291.63;;;6.32;71.80
34073;BME280;20346;52.702;16.886;2024-03-29T00:46:38;99297.48;;;6.39;70.07
34073;BME280;20346;52.702;16.886;2024-03-29T00:49:03;99303.25;;;6.41;70.83
34073;BME280;20346;52.702;16.886;2024-03-29T00:51:29;99307.45;;;6.45;69.88
34073;BME280;20346;52.702;16.886;2024-03-29T00:53:54;99314.63;;;6.46;70.22
34073;BME280;20346;52.702;16.886;2024-03-29T00:56:20;99320.30;;;6.45;71.04
34073;BME280;20346;52.702;16.886;2024-03-29T00:58:45;99322.52;;;6.45;70.78
34073;BME280;20346;52.702;16.886;2024-03-29T01:01:11;99329.48;;;6.48;70.17
34073;BME280;20346;52.702;16.886;2024-03-29T01:03:36;99334.07;;;6.50;70.63
34073;BME280;20346;52.702;16.886;2024-03-29T01:06:02;99341.38;;;6.52;70.38
34073;BME280;20346;52.702;16.886;2024-03-29T01:08:27;99348.41;;;6.52;71.93
34073;BME280;20346;52.702;16.886;2024-03-29T01:10:53;99352.52;;;6.52;70.41
34073;BME280;20346;52.702;16.886;2024-03-29T01:13:19;99352.42;;;6.48;70.55
34073;BME280;20346;52.702;16.886;2024-03-29T01:15:45;99364.77;;;6.47;70.33
34073;BME280;20346;52.702;16.886;2024-03-29T01:18:10;99371.35;;;6.51;70.33
34073;BME280;20346;52.702;16.886;2024-03-29T01:20:36;99376.66;;;6.60;71.59
34073;BME280;20346;52.702;16.886;2024-03-29T01:23:01;99375.84;;;6.67;70.56
34073;BME280;20346;52.702;16.886;2024-03-29T01:25:26;99379.20;;;6.70;71.07
34073;BME280;20346;52.702;16.886;2024-03-29T01:27:52;99378.27;;;6.74;71.18
34073;BME280;20346;52.702;16.886;2024-03-29T01:30:18;99382.10;;;6.78;70.90
34073;BME280;20346;52.702;16.886;2024-03-29T01:32:43;99384.73;;;6.83;71.72
34073;BME280;20346;52.702;16.886;2024-03-29T01:35:09;99388.56;;;6.88;70.61
34073;BME280;20346;52.702;16.886;2024-03-29T01:37:34;99391.88;;;6.94;71.24
34073;BME280;20346;52.702;16.886;2024-03-29T01:40:00;99395.55;;;6.98;70.71
34073;BME280;20346;52.702;16.886;2024-03-29T01:42:25;99400.59;;;7.03;71.65
34073;BME280;20346;52.702;16.886;2024-03-29T01:44:51;99401.91;;;7.06;71.24
34073;BME280;20346;52.702;16.886;2024-03-29T01:47:17;99399.21;;;7.12;71.63
34073;BME280;20346;52.702;16.886;2024-03-29T01:49:44;99405.60;;;7.17;71.69
34073;BME280;20346;52.702;16.886;2024-03-29T01:52:12;99410.75;;;7.25;70.92
34073;BME280;20346;52.702;16.886;2024-03-29T01:54:37;99417.69;;;7.28;70.96
34073;BME280;20346;52.702;16.886;2024-03-29T01:57:03;99417.97;;;7.30;70.71
34073;BME280;20346;52.702;16.886;2024-03-29T01:59:29;99421.20;;;7.32;70.92
34073;BME280;20346;52.702;16.886;2024-03-29T02:01:57;99422.16;;;7.35;71.08
34073;BME280;20346;52.702;16.886;2024-03-29T02:04:24;99429.27;;;7.39;71.44
34073;BME280;20346;52.702;16.886;2024-03-29T02:06:49;99433.13;;;7.43;70.90
34073;BME280;20346;52.702;16.886;2024-03-29T02:09:15;99436.31;;;7.46;70.62
34073;BME280;20346;52.702;16.886;2024-03-29T02:11:40;99436.77;;;7.49;70.98
34073;BME280;20346;52.702;16.886;2024-03-29T02:14:06;99439.77;;;7.53;70.74
34073;BME280;20346;52.702;16.886;2024-03-29T02:16:32;99441.86;;;7.58;70.50
34073;BME280;20346;52.702;16.886;2024-03-29T02:18:57;99444.05;;;7.61;70.48
34073;BME280;20346;52.702;16.886;2024-03-29T02:21:23;99445.56;;;7.62;69.97
34073;BME280;20346;52.702;16.886;2024-03-29T02:23:53;99453.67;;;7.60;70.14
34073;BME280;20346;52.702;16.886;2024-03-29T02:26:19;99459.17;;;7.59;70.06
34073;BME280;20346;52.702;16.886;2024-03-29T02:28:44;99462.48;;;7.57;70.11
34073;BME280;20346;52.702;16.886;2024-03-29T02:31:10;99459.89;;;7.50;69.80
34073;BME280;20346;52.702;16.886;2024-03-29T02:33:35;99459.12;;;7.46;70.09
34073;BME280;20346;52.702;16.886;2024-03-29T02:36:00;99459.55;;;7.42;70.52
34073;BME280;20346;52.702;16.886;2024-03-29T02:38:26;99458.82;;;7.36;70.56
34073;BME280;20346;52.702;16.886;2024-03-29T02:40:51;99462.90;;;7.30;70.90
34073;BME280;20346;52.702;16.886;2024-03-29T02:43:16;99461.86;;;7.23;70.71
34073;BME280;20346;52.702;16.886;2024-03-29T02:45:42;99464.14;;;7.21;71.09
34073;BME280;20346;52.702;16.886;2024-03-29T02:48:08;99461.17;;;7.15;71.52
34073;BME280;20346;52.702;16.886;2024-03-29T02:50:33;99458.06;;;7.08;71.84
34073;BME280;20346;52.702;16.886;2024-03-29T02:52:59;99463.69;;;7.01;71.65
34073;BME280;20346;52.702;16.886;2024-03-29T02:55:24;99464.89;;;6.92;71.47
34073;BME280;20346;52.702;16.886;2024-03-29T02:57:49;99469.42;;;6.88;71.90
34073;BME280;20346;52.702;16.886;2024-03-29T03:00:15;99469.84;;;6.84;72.53
34073;BME280;20346;52.702;16.886;2024-03-29T03:02:41;99477.14;;;6.79;72.56
34073;BME280;20346;52.702;16.886;2024-03-29T03:05:07;99478.02;;;6.70;73.40
34073;BME280;20346;52.702;16.886;2024-03-29T03:07:34;99480.06;;;6.60;73.14
34073;BME280;20346;52.702;16.886;2024-03-29T03:10:17;99482.70;;;6.57;73.98
34073;BME280;20346;52.702;16.886;2024-03-29T03:13:02;99482.69;;;6.48;73.68
34073;BME280;20346;52.702;16.886;2024-03-29T03:15:27;99490.52;;;6.41;73.85
34073;BME280;20346;52.702;16.886;2024-03-29T03:17:52;99493.55;;;6.34;74.55
34073;BME280;20346;52.702;16.886;2024-03-29T03:20:18;99490.86;;;6.30;73.56
34073;BME280;20346;52.702;16.886;2024-03-29T03:22:44;99494.02;;;6.27;73.16
34073;BME280;20346;52.702;16.886;2024-03-29T03:25:10;99493.61;;;6.22;73.56
34073;BME280;20346;52.702;16.886;2024-03-29T03:27:35;99498.45;;;6.18;74.75
34073;BME280;20346;52.702;16.886;2024-03-29T03:30:00;99499.88;;;6.15;74.06
34073;BME280;20346;52.702;16.886;2024-03-29T03:32:26;99490.21;;;6.10;75.17
34073;BME280;20346;52.702;16.886;2024-03-29T03:34:51;99482.11;;;6.02;74.31
34073;BME280;20346;52.702;16.886;2024-03-29T03:37:17;99477.95;;;5.95;73.84
34073;BME280;20346;52.702;16.886;2024-03-29T03:39:42;99486.25;;;5.87;72.77
34073;BME280;20346;52.702;16.886;2024-03-29T03:42:07;99491.70;;;5.76;73.28
34073;BME280;20346;52.702;16.886;2024-03-29T03:44:33;99496.61;;;5.70;73.46
34073;BME280;20346;52.702;16.886;2024-03-29T03:46:58;99496.53;;;5.63;74.34
34073;BME280;20346;52.702;16.886;2024-03-29T03:49:23;99493.07;;;5.54;74.33
34073;BME280;20346;52.702;16.886;2024-03-29T03:51:49;99494.00;;;5.49;73.55
34073;BME280;20346;52.702;16.886;2024-03-29T03:54:14;99500.58;;;5.42;73.42
34073;BME280;20346;52.702;16.886;2024-03-29T03:56:40;99498.93;;;5.38;73.42
34073;BME280;20346;52.702;16.886;2024-03-29T03:59:05;99502.56;;;5.34;73.54
34073;BME280;20346;52.702;16.886;2024-03-29T04:01:31;99502.43;;;5.31;73.78
34073;BME280;20346;52.702;16.886;2024-03-29T04:03:56;99502.65;;;5.26;74.55
34073;BME280;20346;52.702;16.886;2024-03-29T04:06:21;99512.48;;;5.20;76.29
34073;BME280;20346;52.702;16.886;2024-03-29T04:08:47;99525.84;;;5.18;73.99
34073;BME280;20346;52.702;16.886;2024-03-29T04:11:12;99530.63;;;5.18;75.86
34073;BME280;20346;52.702;16.886;2024-03-29T04:13:38;99525.91;;;5.13;75.55
34073;BME280;20346;52.702;16.886;2024-03-29T04:16:06;99531.61;;;5.07;76.19
34073;BME280;20346;52.702;16.886;2024-03-29T04:18:32;99535.90;;;5.05;77.34
34073;BME280;20346;52.702;16.886;2024-03-29T04:20:59;99540.20;;;5.03;75.61
34073;BME280;20346;52.702;16.886;2024-03-29T04:23:25;99541.91;;;5.02;76.71
34073;BME280;20346;52.702;16.886;2024-03-29T04:25:58;99539.55;;;5.00;76.39
34073;BME280;20346;52.702;16.886;2024-03-29T04:28:24;99543.80;;;5.01;75.35
34073;BME280;20346;52.702;16.886;2024-03-29T04:30:53;99554.38;;;5.03;75.83
34073;BME280;20346;52.702;16.886;2024-03-29T04:33:19;99558.99;;;5.02;76.10
34073;BME280;20346;52.702;16.886;2024-03-29T04:35:59;99555.43;;;5.00;76.41
34073;BME280;20346;52.702;16.886;2024-03-29T04:38:26;99558.33;;;5.00;77.73
34073;BME280;20346;52.702;16.886;2024-03-29T04:40:53;99558.48;;;5.01;77.57
34073;BME280;20346;52.702;16.886;2024-03-29T04:43:21;99550.98;;;5.00;77.50
34073;BME280;20346;52.702;16.886;2024-03-29T04:45:46;99552.52;;;5.00;77.93
34073;BME280;20346;52.702;16.886;2024-03-29T04:48:12;99544.16;;;5.00;77.76
34073;BME280;20346;52.702;16.886;2024-03-29T04:50:38;99544.49;;;5.00;79.16
34073;BME280;20346;52.702;16.886;2024-03-29T04:53:04;99539.05;;;4.98;78.69
34073;BME280;20346;52.702;16.886;2024-03-29T04:55:30;99537.53;;;4.96;77.69
34073;BME280;20346;52.702;16.886;2024-03-29T04:57:56;99539.75;;;4.96;77.42
34073;BME280;20346;52.702;16.886;2024-03-29T05:00:21;99530.52;;;4.98;77.97
34073;BME280;20346;52.702;16.886;2024-03-29T05:02:46;99529.81;;;5.00;79.35
34073;BME280;20346;52.702;16.886;2024-03-29T05:05:12;99538.16;;;5.02;78.88
34073;BME280;20346;52.702;16.886;2024-03-29T05:07:37;99543.29;;;5.02;77.74
34073;BME280;20346;52.702;16.886;2024-03-29T05:10:03;99545.62;;;5.07;77.31
34073;BME280;20346;52.702;16.886;2024-03-29T05:12:32;99543.86;;;5.11;77.86
34073;BME280;20346;52.702;16.886;2024-03-29T05:14:57;99547.73;;;5.16;78.19
34073;BME280;20346;52.702;16.886;2024-03-29T05:17:23;99556.40;;;5.20;78.80
34073;BME280;20346;52.702;16.886;2024-03-29T05:19:52;99563.99;;;5.26;79.79
34073;BME280;20346;52.702;16.886;2024-03-29T05:22:17;99566.48;;;5.33;79.90
34073;BME280;20346;52.702;16.886;2024-03-29T05:24:42;99567.77;;;5.40;79.39
34073;BME280;20346;52.702;16.886;2024-03-29T05:27:08;99565.48;;;5.46;79.04
34073;BME280;20346;52.702;16.886;2024-03-29T05:29:33;99570.70;;;5.52;80.32
34073;BME280;20346;52.702;16.886;2024-03-29T05:31:59;99579.15;;;5.59;79.07
34073;BME280;20346;52.702;16.886;2024-03-29T05:34:24;99580.39;;;5.70;78.03
34073;BME280;20346;52.702;16.886;2024-03-29T05:36:49;99584.73;;;5.75;78.55
34073;BME280;20346;52.702;16.886;2024-03-29T05:39:15;99596.80;;;5.82;79.45
34073;BME280;20346;52.702;16.886;2024-03-29T05:41:41;99596.18;;;5.92;78.32
34073;BME280;20346;52.702;16.886;2024-03-29T05:44:06;99588.33;;;6.04;79.38
34073;BME280;20346;52.702;16.886;2024-03-29T05:46:31;99590.70;;;6.16;78.36
34073;BME280;20346;52.702;16.886;2024-03-29T05:48:57;99586.57;;;6.28;78.05
34073;BME280;20346;52.702;16.886;2024-03-29T05:51:22;99584.33;;;6.41;77.87
34073;BME280;20346;52.702;16.886;2024-03-29T05:53:48;99575.21;;;6.54;77.24
34073;BME280;20346;52.702;16.886;2024-03-29T05:56:13;99578.73;;;6.69;76.93
34073;BME280;20346;52.702;16.886;2024-03-29T05:58:38;99573.16;;;6.85;77.29
34073;BME280;20346;52.702;16.886;2024-03-29T06:01:04;99572.38;;;6.98;76.65
34073;BME280;20346;52.702;16.886;2024-03-29T06:03:30;99571.59;;;7.13;76.34
34073;BME280;20346;52.702;16.886;2024-03-29T06:05:55;99564.36;;;7.31;76.03
34073;BME280;20346;52.702;16.886;2024-03-29T06:08:21;99562.14;;;7.48;75.42
34073;BME280;20346;52.702;16.886;2024-03-29T06:10:48;99559.23;;;7.64;75.17
34073;BME280;20346;52.702;16.886;2024-03-29T06:13:14;99551.48;;;7.80;75.03
34073;BME280;20346;52.702;16.886;2024-03-29T06:16:14;99553.21;;;8.02;74.49
34073;BME280;20346;52.702;16.886;2024-03-29T06:18:58;99545.64;;;8.18;73.76
34073;BME280;20346;52.702;16.886;2024-03-29T06:21:23;99539.93;;;8.35;73.73
34073;BME280;20346;52.702;16.886;2024-03-29T06:23:49;99549.05;;;8.48;73.36
34073;BME280;20346;52.702;16.886;2024-03-29T06:26:14;99552.11;;;8.56;72.55
34073;BME280;20346;52.702;16.886;2024-03-29T06:28:40;99555.45;;;8.68;72.26
34073;BME280;20346;52.702;16.886;2024-03-29T06:31:05;99565.98;;;8.85;72.73
34073;BME280;20346;52.702;16.886;2024-03-29T06:33:30;99580.66;;;8.95;71.66
34073;BME280;20346;52.702;16.886;2024-03-29T06:35:56;99595.25;;;8.96;71.28
34073;BME280;20346;52.702;16.886;2024-03-29T06:38:21;99598.89;;;8.94;70.82
34073;BME280;20346;52.702;16.886;2024-03-29T06:40:47;99605.80;;;9.00;70.81
34073;BME280;20346;52.702;16.886;2024-03-29T06:43:13;99612.95;;;9.09;70.32
34073;BME280;20346;52.702;16.886;2024-03-29T06:45:41;99610.90;;;9.28;70.63
34073;BME280;20346;52.702;16.886;2024-03-29T06:48:08;99605.17;;;9.48;69.91
34073;BME280;20346;52.702;16.886;2024-03-29T06:50:33;99600.41;;;9.64;68.83
34073;BME280;20346;52.702;16.886;2024-03-29T06:53:00;99603.30;;;9.72;68.23
34073;BME280;20346;52.702;16.886;2024-03-29T06:55:25;99600.80;;;9.75;67.28
34073;BME280;20346;52.702;16.886;2024-03-29T06:57:50;99601.22;;;9.84;67.39
34073;BME280;20346;52.702;16.886;2024-03-29T07:00:16;99607.73;;;10.02;67.27
34073;BME280;20346;52.702;16.886;2024-03-29T07:02:42;99606.52;;;10.26;67.31
34073;BME280;20346;52.702;16.886;2024-03-29T07:05:08;99613.55;;;10.43;65.75
34073;BME280;20346;52.702;16.886;2024-03-29T07:07:36;99621.13;;;10.48;64.22
34073;BME280;20346;52.702;16.886;2024-03-29T07:10:02;99631.55;;;10.62;64.13
34073;BME280;20346;52.702;16.886;2024-03-29T07:12:28;99630.08;;;10.76;64.03
34073;BME280;20346;52.702;16.886;2024-03-29T07:14:53;99621.97;;;10.91;63.79
34073;BME280;20346;52.702;16.886;2024-03-29T07:17:19;99612.22;;;11.09;63.99
34073;BME280;20346;52.702;16.886;2024-03-29T07:19:44;99606.16;;;11.24;63.74
34073;BME280;20346;52.702;16.886;2024-03-29T07:22:09;99608.30;;;11.51;64.29
34073;BME280;20346;52.702;16.886;2024-03-29T07:24:35;99615.47;;;11.82;61.54
34073;BME280;20346;52.702;16.886;2024-03-29T07:27:00;99624.86;;;11.85;62.31
34073;BME280;20346;52.702;16.886;2024-03-29T07:29:26;99631.56;;;11.99;61.71
34073;BME280;20346;52.702;16.886;2024-03-29T07:31:51;99641.17;;;12.05;60.93
34073;BME280;20346;52.702;16.886;2024-03-29T07:34:17;99637.14;;;12.16;60.69
34073;BME280;20346;52.702;16.886;2024-03-29T07:36:42;99632.41;;;12.09;59.88
34073;BME280;20346;52.702;16.886;2024-03-29T07:39:08;99636.84;;;12.29;59.36
34073;BME280;20346;52.702;16.886;2024-03-29T07:41:33;99631.80;;;12.68;60.02
34073;BME280;20346;52.702;16.886;2024-03-29T07:43:59;99636.11;;;13.01;58.10
34073;BME280;20346;52.702;16.886;2024-03-29T07:46:31;99633.98;;;13.03;58.29
34073;BME280;20346;52.702;16.886;2024-03-29T07:48:57;99631.98;;;13.09;58.03
34073;BME280;20346;52.702;16.886;2024-03-29T07:51:22;99633.22;;;13.21;56.79
34073;BME280;20346;52.702;16.886;2024-03-29T07:53:48;99627.65;;;13.18;56.42
34073;BME280;20346;52.702;16.886;2024-03-29T07:56:13;99627.58;;;13.28;56.74
34073;BME280;20346;52.702;16.886;2024-03-29T07:58:39;99633.09;;;13.56;56.82
34073;BME280;20346;52.702;16.886;2024-03-29T08:01:04;99642.20;;;13.92;55.22
34073;BME280;20346;52.702;16.886;2024-03-29T08:03:31;99649.20;;;14.28;53.48
34073;BME280;20346;52.702;16.886;2024-03-29T08:06:00;99650.09;;;14.46;52.75
34073;BME280;20346;52.702;16.886;2024-03-29T08:08:27;99646.48;;;14.85;53.58
34073;BME280;20346;52.702;16.886;2024-03-29T08:10:53;99648.09;;;15.11;52.77
34073;BME280;20346;52.702;16.886;2024-03-29T08:13:19;99646.85;;;15.46;52.57
34073;BME280;20346;52.702;16.886;2024-03-29T08:15:46;99641.01;;;15.38;50.40
34073;BME280;20346;52.702;16.886;2024-03-29T08:18:12;99639.68;;;15.60;51.72
34073;BME280;20346;52.702;16.886;2024-03-29T08:20:38;99637.02;;;15.78;49.78
34073;BME280;20346;52.702;16.886;2024-03-29T08:23:03;99638.35;;;16.23;50.70
34073;BME280;20346;52.702;16.886;2024-03-29T08:25:29;99639.17;;;16.18;49.91
34073;BME280;20346;52.702;16.886;2024-03-29T08:27:54;99644.38;;;16.31;47.78
34073;BME280;20346;52.702;16.886;2024-03-29T08:30:26;99657.95;;;16.40;48.30
34073;BME280;20346;52.702;16.886;2024-03-29T08:32:56;99660.66;;;16.54;47.70
34073;BME280;20346;52.702;16.886;2024-03-29T08:35:22;99670.41;;;16.66;48.56
34073;BME280;20346;52.702;16.886;2024-03-29T08:37:48;99676.23;;;16.80;47.84
34073;BME280;20346;52.702;16.886;2024-03-29T08:40:15;99680.05;;;16.80;47.37
34073;BME280;20346;52.702;16.886;2024-03-29T08:42:40;99686.64;;;16.63;46.63
34073;BME280;20346;52.702;16.886;2024-03-29T08:45:06;99693.23;;;16.47;46.70
34073;BME280;20346;52.702;16.886;2024-03-29T08:47:33;99688.09;;;16.30;46.45
34073;BME280;20346;52.702;16.886;2024-03-29T08:49:58;99686.46;;;16.34;46.91
34073;BME280;20346;52.702;16.886;2024-03-29T08:52:24;99688.85;;;16.13;45.82
34073;BME280;20346;52.702;16.886;2024-03-29T08:54:49;99690.08;;;16.03;46.50
34073;BME280;20346;52.702;16.886;2024-03-29T08:57:15;99683.95;;;16.22;47.53
34073;BME280;20346;52.702;16.886;2024-03-29T08:59:40;99683.78;;;16.29;46.39
34073;BME280;20346;52.702;16.886;2024-03-29T09:02:07;99678.91;;;16.29;46.49
34073;BME280;20346;52.702;16.886;2024-03-29T09:04:32;99684.04;;;16.21;46.45
34073;BME280;20346;52.702;16.886;2024-03-29T09:07:02;99686.32;;;16.08;46.23
34073;BME280;20346;52.702;16.886;2024-03-29T09:09:34;99685.91;;;15.93;46.60
34073;BME280;20346;52.702;16.886;2024-03-29T09:11:59;99692.53;;;15.99;46.86
34073;BME280;20346;52.702;16.886;2024-03-29T09:14:25;99697.86;;;15.94;46.35
34073;BME280;20346;52.702;16.886;2024-03-29T09:16:50;99702.17;;;15.68;45.97
34073;BME280;20346;52.702;16.886;2024-03-29T09:19:16;99699.41;;;15.68;47.14
34073;BME280;20346;52.702;16.886;2024-03-29T09:21:42;99706.44;;;15.56;46.84
34073;BME280;20346;52.702;16.886;2024-03-29T09:24:07;99713.23;;;15.62;46.85
34073;BME280;20346;52.702;16.886;2024-03-29T09:26:33;99709.73;;;15.90;46.32
34073;BME280;20346;52.702;16.886;2024-03-29T09:28:59;99710.47;;;15.99;45.72
34073;BME280;20346;52.702;16.886;2024-03-29T09:31:24;99706.51;;;16.11;45.66
34073;BME280;20346;52.702;16.886;2024-03-29T09:33:50;99703.45;;;16.35;45.04
34073;BME280;20346;52.702;16.886;2024-03-29T09:36:21;99703.86;;;16.75;44.44
34073;BME280;20346;52.702;16.886;2024-03-29T09:38:50;99709.95;;;17.35;43.82
34073;BME280;20346;52.702;16.886;2024-03-29T09:41:17;99707.46;;;17.36;43.15
34073;BME280;20346;52.702;16.886;2024-03-29T09:43:45;99703.76;;;17.64;42.38
34073;BME280;20346;52.702;16.886;2024-03-29T09:46:14;99703.70;;;17.93;42.57
34073;BME280;20346;52.702;16.886;2024-03-29T09:48:41;99715.87;;;17.94;41.32
34073;BME280;20346;52.702;16.886;2024-03-29T09:51:07;99720.77;;;17.91;40.76
34073;BME280;20346;52.702;16.886;2024-03-29T09:53:37;99705.45;;;18.54;41.51
34073;BME280;20346;52.702;16.886;2024-03-29T09:56:03;99698.69;;;19.16;39.22
34073;BME280;20346;52.702;16.886;2024-03-29T09:58:30;99694.05;;;19.63;38.42
34073;BME280;20346;52.702;16.886;2024-03-29T10:00:55;99686.83;;;20.05;37.68
34073;BME280;20346;52.702;16.886;2024-03-29T10:03:25;99673.30;;;20.83;38.29
34073;BME280;20346;52.702;16.886;2024-03-29T10:05:58;99670.71;;;21.55;36.56
34073;BME280;20346;52.702;16.886;2024-03-29T10:08:26;99676.99;;;21.89;35.75
34073;BME280;20346;52.702;16.886;2024-03-29T10:10:53;99682.44;;;22.27;35.54
34073;BME280;20346;52.702;16.886;2024-03-29T10:13:19;99686.33;;;22.15;33.20
34073;BME280;20346;52.702;16.886;2024-03-29T10:15:44;99695.34;;;22.04;34.45
34073;BME280;20346;52.702;16.886;2024-03-29T10:18:14;99699.55;;;22.83;32.73
34073;BME280;20346;52.702;16.886;2024-03-29T10:20:40;99700.09;;;23.19;32.55
34073;BME280;20346;52.702;16.886;2024-03-29T10:23:06;99696.41;;;23.33;31.76
34073;BME280;20346;52.702;16.886;2024-03-29T10:25:32;99697.66;;;23.18;31.72
34073;BME280;20346;52.702;16.886;2024-03-29T10:27:59;99695.62;;;22.35;31.37
34073;BME280;20346;52.702;16.886;2024-03-29T10:30:27;99690.12;;;21.94;31.75
34073;BME280;20346;52.702;16.886;2024-03-29T10:32:52;99688.99;;;21.12;31.85
34073;BME280;20346;52.702;16.886;2024-03-29T10:35:18;99680.89;;;21.23;32.54
34073;BME280;20346;52.702;16.886;2024-03-29T10:37:45;99681.59;;;21.22;31.97
34073;BME280;20346;52.702;16.886;2024-03-29T10:40:14;99682.12;;;21.33;31.33
34073;BME280;20346;52.702;16.886;2024-03-29T10:42:41;99677.56;;;21.04;31.32
34073;BME280;20346;52.702;16.886;2024-03-29T10:45:07;99674.52;;;21.26;31.34
34073;BME280;20346;52.702;16.886;2024-03-29T10:47:33;99671.25;;;21.59;31.60
34073;BME280;20346;52.702;16.886;2024-03-29T10:49:59;99668.87;;;21.70;32.13
34073;BME280;20346;52.702;16.886;2024-03-29T10:52:26;99668.95;;;21.60;31.94
34073;BME280;20346;52.702;16.886;2024-03-29T10:54:52;99676.25;;;21.19;30.65
34073;BME280;20346;52.702;16.886;2024-03-29T10:57:23;99676.06;;;20.60;31.60
34073;BME280;20346;52.702;16.886;2024-03-29T11:02:35;99680.70;;;20.27;31.70
34073;BME280;20346;52.702;16.886;2024-03-29T11:05:06;99685.14;;;20.48;31.79
34073;BME280;20346;52.702;16.886;2024-03-29T11:07:40;99692.54;;;20.45;31.77
34073;BME280;20346;52.702;16.886;2024-03-29T11:10:20;99685.05;;;20.25;31.57
34073;BME280;20346;52.702;16.886;2024-03-29T11:12:59;99680.30;;;20.35;32.15
34073;BME280;20346;52.702;16.886;2024-03-29T11:15:30;99676.86;;;20.82;31.56
34073;BME280;20346;52.702;16.886;2024-03-29T11:17:56;99672.52;;;21.24;31.51
34073;BME280;20346;52.702;16.886;2024-03-29T11:20:24;99682.33;;;21.52;30.73
34073;BME280;20346;52.702;16.886;2024-03-29T11:22:59;99685.00;;;21.49;31.02
34073;BME280;20346;52.702;16.886;2024-03-29T11:25:38;99685.77;;;21.32;31.12
34073;BME280;20346;52.702;16.886;2024-03-29T11:28:07;99685.52;;;21.10;30.54
34073;BME280;20346;52.702;16.886;2024-03-29T11:30:48;99679.81;;;21.16;30.74
34073;BME280;20346;52.702;16.886;2024-03-29T11:38:38;99661.66;;;21.44;29.65
34073;BME280;20346;52.702;16.886;2024-03-29T11:43:35;99663.75;;;19.72;31.13
34073;BME280;20346;52.702;16.886;2024-03-29T11:46:02;99663.55;;;19.90;31.51
34073;BME280;20346;52.702;16.886;2024-03-29T11:48:29;99666.25;;;19.64;31.98
34073;BME280;20346;52.702;16.886;2024-03-29T11:50:56;99671.41;;;19.29;32.81
34073;BME280;20346;52.702;16.886;2024-03-29T11:53:22;99666.98;;;19.20;32.83
34073;BME280;20346;52.702;16.886;2024-03-29T11:55:48;99665.09;;;19.68;32.15
34073;BME280;20346;52.702;16.886;2024-03-29T11:58:23;99668.94;;;19.93;32.18
34073;BME280;20346;52.702;16.886;2024-03-29T12:00:53;99664.33;;;20.28;31.71
34073;BME280;20346;52.702;16.886;2024-03-29T12:03:20;99664.02;;;20.23;31.68
34073;BME280;20346;52.702;16.886;2024-03-29T12:05:48;99670.04;;;19.92;32.00
34073;BME280;20346;52.702;16.886;2024-03-29T12:08:14;99658.92;;;19.33;32.23
34073;BME280;20346;52.702;16.886;2024-03-29T12:10:40;99656.17;;;18.87;32.75
34073;BME280;20346;52.702;16.886;2024-03-29T12:13:06;99650.66;;;19.07;33.05
34073;BME280;20346;52.702;16.886;2024-03-29T12:15:32;99642.98;;;19.49;32.50
34073;BME280;20346;52.702;16.886;2024-03-29T12:18:00;99644.19;;;19.77;32.52
34073;BME280;20346;52.702;16.886;2024-03-29T12:20:29;99645.34;;;20.30;31.98
34073;BME280;20346;52.702;16.886;2024-03-29T12:22:55;99646.89;;;20.52;31.02
34073;BME280;20346;52.702;16.886;2024-03-29T12:25:21;99638.66;;;20.32;30.84
34073;BME280;20346;52.702;16.886;2024-03-29T12:27:49;99640.73;;;20.16;31.09
34073;BME280;20346;52.702;16.886;2024-03-29T12:30:15;99642.95;;;20.11;31.45
34073;BME280;20346;52.702;16.886;2024-03-29T12:32:41;99641.19;;;19.99;30.90
34073;BME280;20346;52.702;16.886;2024-03-29T12:35:14;99630.34;;;20.09;31.34
34073;BME280;20346;52.702;16.886;2024-03-29T12:37:49;99625.48;;;20.19;31.32
34073;BME280;20346;52.702;16.886;2024-03-29T12:40:16;99624.38;;;20.46;31.35
34073;BME280;20346;52.702;16.886;2024-03-29T12:42:44;99622.52;;;20.85;30.37
34073;BME280;20346;52.702;16.886;2024-03-29T12:45:09;99612.93;;;21.40;29.88
34073;BME280;20346;52.702;16.886;2024-03-29T12:47:36;99616.46;;;21.98;29.63
34073;BME280;20346;52.702;16.886;2024-03-29T12:50:03;99613.13;;;22.30;28.76
34073;BME280;20346;52.702;16.886;2024-03-29T12:52:39;99618.73;;;22.52;28.27
34073;BME280;20346;52.702;16.886;2024-03-29T12:55:05;99621.11;;;22.49;28.04
34073;BME280;20346;52.702;16.886;2024-03-29T12:57:33;99624.89;;;22.63;27.69
34073;BME280;20346;52.702;16.886;2024-03-29T12:59:58;99625.95;;;22.71;27.58
34073;BME280;20346;52.702;16.886;2024-03-29T13:02:24;99630.04;;;22.19;27.92